sensor_id;sensor_type;location;lat;lon;timestamp;P1;durP1;ratioP1;P2;durP2;ratioP2
23952;SDS011;12163;49.316;6.092;2023-11-19T00:00:52;1.55;;;0.30;;
23952;SDS011;12163;49.316;6.092;2023-11-19T00:03:19;0.30;;;0.30;;
23952;SDS011;12163;49.316;6.092;2023-11-19T00:05:46;0.40;;;0.40;;
23952;SDS011;12163;49.316;6.092;2023-11-19T00:08:14;0.30;;;0.30;;
23952;SDS011;12163;49.316;6.092;2023-11-19T00:10:40;1.15;;;0.50;;
23952;SDS011;12163;49.316;6.092;2023-11-19T00:13:07;0.22;;;0.22;;
23952;SDS011;12163;49.316;6.092;2023-11-19T00:15:34;1.65;;;0.40;;
23952;SDS011;12163;49.316;6.092;2023-11-19T00:18:00;1.25;;;0.50;;
23952;SDS011;12163;49.316;6.092;2023-11-19T00:20:31;0.40;;;0.40;;
23952;SDS011;12163;49.316;6.092;2023-11-19T00:22:57;0.77;;;0.40;;
23952;SDS011;12163;49.316;6.092;2023-11-19T00:25:24;0.57;;;0.50;;
23952;SDS011;12163;49.316;6.092;2023-11-19T00:27:51;0.30;;;0.20;;
23952;SDS011;12163;49.316;6.092;2023-11-19T00:30:20;0.70;;;0.38;;
23952;SDS011;12163;49.316;6.092;2023-11-19T00:32:46;1.15;;;0.35;;
23952;SDS011;12163;49.316;6.092;2023-11-19T00:35:13;0.70;;;0.40;;
23952;SDS011;12163;49.316;6.092;2023-11-19T00:37:42;0.55;;;0.32;;
23952;SDS011;12163;49.316;6.092;2023-11-19T00:40:09;0.68;;;0.50;;
23952;SDS011;12163;49.316;6.092;2023-11-19T00:42:37;0.60;;;0.45;;
23952;SDS011;12163;49.316;6.092;2023-11-19T00:45:04;1.13;;;0.68;;
23952;SDS011;12163;49.316;6.092;2023-11-19T00:47:35;1.00;;;0.80;;
23952;SDS011;12163;49.316;6.092;2023-11-19T00:50:02;1.02;;;0.70;;
23952;SDS011;12163;49.316;6.092;2023-11-19T00:52:29;0.95;;;0.80;;
23952;SDS011;12163;49.316;6.092;2023-11-19T00:54:56;1.92;;;1.00;;
23952;SDS011;12163;49.316;6.092;2023-11-19T00:57:23;0.85;;;0.75;;
23952;SDS011;12163;49.316;6.092;2023-11-19T00:59:50;2.03;;;1.15;;
23952;SDS011;12163;49.316;6.092;2023-11-19T01:02:17;3.65;;;1.30;;
23952;SDS011;12163;49.316;6.092;2023-11-19T01:04:43;5.95;;;1.42;;
23952;SDS011;12163;49.316;6.092;2023-11-19T01:07:10;7.15;;;1.88;;
23952;SDS011;12163;49.316;6.092;2023-11-19T01:09:41;4.13;;;1.83;;
23952;SDS011;12163;49.316;6.092;2023-11-19T01:12:08;2.58;;;1.90;;
23952;SDS011;12163;49.316;6.092;2023-11-19T01:14:36;3.35;;;2.00;;
23952;SDS011;12163;49.316;6.092;2023-11-19T01:17:03;2.78;;;2.10;;
23952;SDS011;12163;49.316;6.092;2023-11-19T01:19:31;4.05;;;2.05;;
23952;SDS011;12163;49.316;6.092;2023-11-19T01:21:57;3.22;;;2.15;;
23952;SDS011;12163;49.316;6.092;2023-11-19T01:24:24;3.33;;;2.35;;
23952;SDS011;12163;49.316;6.092;2023-11-19T01:26:54;3.95;;;2.42;;
23952;SDS011;12163;49.316;6.092;2023-11-19T01:29:21;3.67;;;2.15;;
23952;SDS011;12163;49.316;6.092;2023-11-19T01:31:47;2.72;;;2.20;;
23952;SDS011;12163;49.316;6.092;2023-11-19T01:34:14;5.70;;;2.63;;
23952;SDS011;12163;49.316;6.092;2023-11-19T01:36:40;5.03;;;2.60;;
23952;SDS011;12163;49.316;6.092;2023-11-19T01:39:07;5.53;;;2.70;;
23952;SDS011;12163;49.316;6.092;2023-11-19T01:41:34;4.25;;;2.20;;
23952;SDS011;12163;49.316;6.092;2023-11-19T01:44:02;4.93;;;2.58;;
23952;SDS011;12163;49.316;6.092;2023-11-19T01:46:29;5.65;;;2.63;;
23952;SDS011;12163;49.316;6.092;2023-11-19T01:48:56;6.15;;;2.60;;
23952;SDS011;12163;49.316;6.092;2023-11-19T01:51:23;4.97;;;2.17;;
23952;SDS011;12163;49.316;6.092;2023-11-19T01:53:51;3.22;;;2.53;;
23952;SDS011;12163;49.316;6.092;2023-11-19T01:56:18;2.97;;;2.15;;
23952;SDS011;12163;49.316;6.092;2023-11-19T01:58:47;4.68;;;2.33;;
23952;SDS011;12163;49.316;6.092;2023-11-19T02:01:16;3.88;;;2.30;;
23952;SDS011;12163;49.316;6.092;2023-11-19T02:03:42;2.72;;;2.35;;
23952;SDS011;12163;49.316;6.092;2023-11-19T02:06:09;3.20;;;2.00;;
23952;SDS011;12163;49.316;6.092;2023-11-19T02:08:36;4.13;;;1.85;;
23952;SDS011;12163;49.316;6.092;2023-11-19T02:11:05;3.60;;;1.80;;
23952;SDS011;12163;49.316;6.092;2023-11-19T02:13:33;5.15;;;1.65;;
23952;SDS011;12163;49.316;6.092;2023-11-19T02:16:02;1.67;;;1.52;;
23952;SDS011;12163;49.316;6.092;2023-11-19T02:18:30;4.13;;;1.90;;
23952;SDS011;12163;49.316;6.092;2023-11-19T02:20:57;3.00;;;2.00;;
23952;SDS011;12163;49.316;6.092;2023-11-19T02:23:28;4.20;;;1.70;;
23952;SDS011;12163;49.316;6.092;2023-11-19T02:26:02;3.33;;;1.60;;
23952;SDS011;12163;49.316;6.092;2023-11-19T02:28:35;2.67;;;1.48;;
23952;SDS011;12163;49.316;6.092;2023-11-19T02:31:03;2.00;;;1.50;;
23952;SDS011;12163;49.316;6.092;2023-11-19T02:33:31;2.40;;;1.40;;
23952;SDS011;12163;49.316;6.092;2023-11-19T02:35:57;5.22;;;1.67;;
23952;SDS011;12163;49.316;6.092;2023-11-19T02:38:24;2.22;;;1.20;;
23952;SDS011;12163;49.316;6.092;2023-11-19T02:40:50;1.55;;;1.35;;
23952;SDS011;12163;49.316;6.092;2023-11-19T02:43:17;1.65;;;1.25;;
23952;SDS011;12163;49.316;6.092;2023-11-19T02:45:44;4.65;;;1.35;;
23952;SDS011;12163;49.316;6.092;2023-11-19T02:48:12;3.15;;;1.30;;
23952;SDS011;12163;49.316;6.092;2023-11-19T02:50:40;1.60;;;1.50;;
23952;SDS011;12163;49.316;6.092;2023-11-19T02:53:08;2.03;;;1.52;;
23952;SDS011;12163;49.316;6.092;2023-11-19T02:55:34;4.85;;;1.52;;
23952;SDS011;12163;49.316;6.092;2023-11-19T02:58:04;4.55;;;1.50;;
23952;SDS011;12163;49.316;6.092;2023-11-19T03:00:46;3.63;;;1.90;;
23952;SDS011;12163;49.316;6.092;2023-11-19T03:05:47;3.45;;;1.52;;
23952;SDS011;12163;49.316;6.092;2023-11-19T03:08:14;6.45;;;1.98;;
23952;SDS011;12163;49.316;6.092;2023-11-19T03:10:45;1.67;;;1.40;;
23952;SDS011;12163;49.316;6.092;2023-11-19T03:13:12;4.65;;;2.22;;
23952;SDS011;12163;49.316;6.092;2023-11-19T03:15:45;5.50;;;2.00;;
23952;SDS011;12163;49.316;6.092;2023-11-19T03:18:12;7.20;;;2.33;;
23952;SDS011;12163;49.316;6.092;2023-11-19T03:20:39;5.55;;;2.70;;
23952;SDS011;12163;49.316;6.092;2023-11-19T03:23:06;5.40;;;2.30;;
23952;SDS011;12163;49.316;6.092;2023-11-19T03:25:33;5.85;;;2.47;;
23952;SDS011;12163;49.316;6.092;2023-11-19T03:28:00;4.53;;;2.03;;
23952;SDS011;12163;49.316;6.092;2023-11-19T03:30:28;4.50;;;2.30;;
23952;SDS011;12163;49.316;6.092;2023-11-19T03:32:59;6.03;;;2.30;;
23952;SDS011;12163;49.316;6.092;2023-11-19T03:35:28;5.25;;;1.98;;
23952;SDS011;12163;49.316;6.092;2023-11-19T03:37:54;6.68;;;2.25;;
23952;SDS011;12163;49.316;6.092;2023-11-19T03:40:22;7.25;;;2.10;;
23952;SDS011;12163;49.316;6.092;2023-11-19T03:42:48;5.70;;;2.20;;
23952;SDS011;12163;49.316;6.092;2023-11-19T03:45:15;4.32;;;2.20;;
23952;SDS011;12163;49.316;6.092;2023-11-19T03:47:42;4.85;;;1.80;;
23952;SDS011;12163;49.316;6.092;2023-11-19T03:50:09;5.10;;;2.00;;
23952;SDS011;12163;49.316;6.092;2023-11-19T03:52:35;6.80;;;1.90;;
23952;SDS011;12163;49.316;6.092;2023-11-19T03:55:05;4.55;;;1.60;;
23952;SDS011;12163;49.316;6.092;2023-11-19T03:57:34;5.47;;;1.88;;
23952;SDS011;12163;49.316;6.092;2023-11-19T04:00:01;6.80;;;2.00;;
23952;SDS011;12163;49.316;6.092;2023-11-19T04:02:37;5.32;;;1.88;;
23952;SDS011;12163;49.316;6.092;2023-11-19T04:05:03;4.03;;;1.80;;
23952;SDS011;12163;49.316;6.092;2023-11-19T04:07:31;8.15;;;1.90;;
23952;SDS011;12163;49.316;6.092;2023-11-19T04:09:58;5.50;;;1.95;;
23952;SDS011;12163;49.316;6.092;2023-11-19T04:12:25;5.30;;;1.67;;
23952;SDS011;12163;49.316;6.092;2023-11-19T04:14:52;3.17;;;1.73;;
23952;SDS011;12163;49.316;6.092;2023-11-19T04:17:21;6.20;;;1.48;;
23952;SDS011;12163;49.316;6.092;2023-11-19T04:19:49;3.38;;;1.63;;
23952;SDS011;12163;49.316;6.092;2023-11-19T04:22:16;6.57;;;1.60;;
23952;SDS011;12163;49.316;6.092;2023-11-19T04:24:42;4.97;;;1.40;;
23952;SDS011;12163;49.316;6.092;2023-11-19T04:27:11;2.47;;;1.42;;
23952;SDS011;12163;49.316;6.092;2023-11-19T04:29:38;14.15;;;2.03;;
23952;SDS011;12163;49.316;6.092;2023-11-19T04:32:05;4.85;;;1.55;;
23952;SDS011;12163;49.316;6.092;2023-11-19T04:34:32;7.10;;;1.80;;
23952;SDS011;12163;49.316;6.092;2023-11-19T04:36:58;8.27;;;1.80;;
23952;SDS011;12163;49.316;6.092;2023-11-19T04:39:39;7.22;;;1.65;;
23952;SDS011;12163;49.316;6.092;2023-11-19T04:42:05;5.88;;;1.60;;
23952;SDS011;12163;49.316;6.092;2023-11-19T04:44:33;7.55;;;1.83;;
23952;SDS011;12163;49.316;6.092;2023-11-19T04:46:59;9.02;;;1.80;;
23952;SDS011;12163;49.316;6.092;2023-11-19T04:49:27;4.57;;;1.67;;
23952;SDS011;12163;49.316;6.092;2023-11-19T04:51:54;5.15;;;1.65;;
23952;SDS011;12163;49.316;6.092;2023-11-19T04:54:20;5.00;;;1.25;;
23952;SDS011;12163;49.316;6.092;2023-11-19T04:56:47;4.47;;;1.60;;
23952;SDS011;12163;49.316;6.092;2023-11-19T04:59:13;3.35;;;1.40;;
23952;SDS011;12163;49.316;6.092;2023-11-19T05:01:40;9.02;;;1.85;;
23952;SDS011;12163;49.316;6.092;2023-11-19T05:04:07;4.03;;;1.58;;
23952;SDS011;12163;49.316;6.092;2023-11-19T05:06:34;6.75;;;1.80;;
23952;SDS011;12163;49.316;6.092;2023-11-19T05:09:01;6.53;;;1.90;;
23952;SDS011;12163;49.316;6.092;2023-11-19T05:11:32;5.40;;;1.63;;
23952;SDS011;12163;49.316;6.092;2023-11-19T05:14:02;4.82;;;1.70;;
23952;SDS011;12163;49.316;6.092;2023-11-19T05:16:30;5.03;;;1.60;;
23952;SDS011;12163;49.316;6.092;2023-11-19T05:18:57;3.30;;;1.40;;
23952;SDS011;12163;49.316;6.092;2023-11-19T05:21:24;5.20;;;1.70;;
23952;SDS011;12163;49.316;6.092;2023-11-19T05:23:50;6.97;;;2.10;;
23952;SDS011;12163;49.316;6.092;2023-11-19T05:26:21;10.45;;;1.98;;
23952;SDS011;12163;49.316;6.092;2023-11-19T05:28:48;6.32;;;1.88;;
23952;SDS011;12163;49.316;6.092;2023-11-19T05:31:15;8.52;;;1.92;;
23952;SDS011;12163;49.316;6.092;2023-11-19T05:33:43;5.85;;;1.63;;
23952;SDS011;12163;49.316;6.092;2023-11-19T05:36:11;5.18;;;1.80;;
23952;SDS011;12163;49.316;6.092;2023-11-19T05:38:39;6.63;;;1.58;;
23952;SDS011;12163;49.316;6.092;2023-11-19T05:41:05;4.88;;;1.50;;
23952;SDS011;12163;49.316;6.092;2023-11-19T05:43:32;6.90;;;1.80;;
23952;SDS011;12163;49.316;6.092;2023-11-19T05:45:59;10.05;;;2.20;;
23952;SDS011;12163;49.316;6.092;2023-11-19T05:48:27;7.55;;;2.20;;
23952;SDS011;12163;49.316;6.092;2023-11-19T05:50:55;7.32;;;2.40;;
23952;SDS011;12163;49.316;6.092;2023-11-19T05:53:21;4.28;;;2.20;;
23952;SDS011;12163;49.316;6.092;2023-11-19T05:55:48;10.32;;;2.38;;
23952;SDS011;12163;49.316;6.092;2023-11-19T05:58:24;8.48;;;2.13;;
23952;SDS011;12163;49.316;6.092;2023-11-19T06:00:55;5.38;;;1.70;;
23952;SDS011;12163;49.316;6.092;2023-11-19T06:03:23;6.53;;;1.83;;
23952;SDS011;12163;49.316;6.092;2023-11-19T06:05:50;6.13;;;2.10;;
23952;SDS011;12163;49.316;6.092;2023-11-19T06:08:16;7.38;;;1.90;;
23952;SDS011;12163;49.316;6.092;2023-11-19T06:10:43;6.70;;;2.33;;
23952;SDS011;12163;49.316;6.092;2023-11-19T06:13:13;5.78;;;1.77;;
23952;SDS011;12163;49.316;6.092;2023-11-19T06:15:41;6.53;;;1.83;;
23952;SDS011;12163;49.316;6.092;2023-11-19T06:18:08;6.20;;;2.03;;
23952;SDS011;12163;49.316;6.092;2023-11-19T06:20:36;6.68;;;2.40;;
23952;SDS011;12163;49.316;6.092;2023-11-19T06:23:05;11.00;;;2.10;;
23952;SDS011;12163;49.316;6.092;2023-11-19T06:25:33;7.20;;;1.92;;
23952;SDS011;12163;49.316;6.092;2023-11-19T06:28:01;11.82;;;2.20;;
23952;SDS011;12163;49.316;6.092;2023-11-19T06:30:28;10.80;;;2.80;;
23952;SDS011;12163;49.316;6.092;2023-11-19T06:32:56;8.27;;;1.80;;
23952;SDS011;12163;49.316;6.092;2023-11-19T06:35:22;6.30;;;1.73;;
23952;SDS011;12163;49.316;6.092;2023-11-19T06:37:49;5.35;;;1.92;;
23952;SDS011;12163;49.316;6.092;2023-11-19T06:40:15;5.18;;;1.70;;
23952;SDS011;12163;49.316;6.092;2023-11-19T06:42:42;11.02;;;2.10;;
23952;SDS011;12163;49.316;6.092;2023-11-19T06:45:09;10.10;;;2.53;;
23952;SDS011;12163;49.316;6.092;2023-11-19T06:47:36;6.95;;;1.98;;
23952;SDS011;12163;49.316;6.092;2023-11-19T06:50:02;8.00;;;2.53;;
23952;SDS011;12163;49.316;6.092;2023-11-19T06:52:31;8.90;;;2.10;;
23952;SDS011;12163;49.316;6.092;2023-11-19T06:54:58;10.98;;;2.05;;
23952;SDS011;12163;49.316;6.092;2023-11-19T06:57:28;10.40;;;2.25;;
23952;SDS011;12163;49.316;6.092;2023-11-19T06:59:55;6.88;;;1.85;;
23952;SDS011;12163;49.316;6.092;2023-11-19T07:02:23;11.15;;;2.20;;
23952;SDS011;12163;49.316;6.092;2023-11-19T07:04:53;8.15;;;1.83;;
23952;SDS011;12163;49.316;6.092;2023-11-19T07:07:20;9.77;;;2.13;;
23952;SDS011;12163;49.316;6.092;2023-11-19T07:09:47;7.30;;;2.03;;
23952;SDS011;12163;49.316;6.092;2023-11-19T07:12:14;10.50;;;2.20;;
23952;SDS011;12163;49.316;6.092;2023-11-19T07:14:41;6.10;;;1.73;;
23952;SDS011;12163;49.316;6.092;2023-11-19T07:17:08;8.15;;;1.88;;
23952;SDS011;12163;49.316;6.092;2023-11-19T07:19:36;4.72;;;1.80;;
23952;SDS011;12163;49.316;6.092;2023-11-19T07:22:04;9.93;;;2.00;;
23952;SDS011;12163;49.316;6.092;2023-11-19T07:24:30;12.32;;;1.90;;
23952;SDS011;12163;49.316;6.092;2023-11-19T07:26:57;6.88;;;1.90;;
23952;SDS011;12163;49.316;6.092;2023-11-19T07:29:24;10.43;;;2.20;;
23952;SDS011;12163;49.316;6.092;2023-11-19T07:31:53;9.73;;;2.30;;
23952;SDS011;12163;49.316;6.092;2023-11-19T07:34:20;12.80;;;2.22;;
23952;SDS011;12163;49.316;6.092;2023-11-19T07:36:47;9.63;;;2.10;;
23952;SDS011;12163;49.316;6.092;2023-11-19T07:39:13;5.18;;;1.77;;
23952;SDS011;12163;49.316;6.092;2023-11-19T07:41:40;8.45;;;1.52;;
23952;SDS011;12163;49.316;6.092;2023-11-19T07:44:07;7.75;;;1.70;;
23952;SDS011;12163;49.316;6.092;2023-11-19T07:46:33;9.38;;;1.73;;
23952;SDS011;12163;49.316;6.092;2023-11-19T07:49:00;12.73;;;1.83;;
23952;SDS011;12163;49.316;6.092;2023-11-19T07:51:29;9.75;;;2.40;;
23952;SDS011;12163;49.316;6.092;2023-11-19T07:53:55;8.75;;;2.08;;
23952;SDS011;12163;49.316;6.092;2023-11-19T07:56:22;11.43;;;2.10;;
23952;SDS011;12163;49.316;6.092;2023-11-19T07:58:48;8.38;;;2.00;;
23952;SDS011;12163;49.316;6.092;2023-11-19T08:01:15;10.43;;;1.90;;
23952;SDS011;12163;49.316;6.092;2023-11-19T08:03:42;11.65;;;2.08;;
23952;SDS011;12163;49.316;6.092;2023-11-19T08:06:24;9.35;;;1.88;;
23952;SDS011;12163;49.316;6.092;2023-11-19T08:08:50;8.50;;;1.67;;
23952;SDS011;12163;49.316;6.092;2023-11-19T08:11:18;11.27;;;2.00;;
23952;SDS011;12163;49.316;6.092;2023-11-19T08:13:46;8.43;;;1.70;;
23952;SDS011;12163;49.316;6.092;2023-11-19T08:16:13;8.20;;;1.80;;
23952;SDS011;12163;49.316;6.092;2023-11-19T08:18:42;9.10;;;1.40;;
23952;SDS011;12163;49.316;6.092;2023-11-19T08:21:09;6.15;;;1.60;;
23952;SDS011;12163;49.316;6.092;2023-11-19T08:23:36;9.77;;;2.05;;
23952;SDS011;12163;49.316;6.092;2023-11-19T08:26:04;9.32;;;2.00;;
23952;SDS011;12163;49.316;6.092;2023-11-19T08:28:31;6.95;;;1.83;;
23952;SDS011;12163;49.316;6.092;2023-11-19T08:31:00;8.10;;;1.80;;
23952;SDS011;12163;49.316;6.092;2023-11-19T08:33:27;8.07;;;1.70;;
23952;SDS011;12163;49.316;6.092;2023-11-19T08:35:53;11.43;;;1.73;;
23952;SDS011;12163;49.316;6.092;2023-11-19T08:38:20;8.88;;;1.73;;
23952;SDS011;12163;49.316;6.092;2023-11-19T08:40:49;6.88;;;1.48;;
23952;SDS011;12163;49.316;6.092;2023-11-19T08:43:16;11.77;;;1.98;;
23952;SDS011;12163;49.316;6.092;2023-11-19T08:45:43;10.27;;;1.77;;
23952;SDS011;12163;49.316;6.092;2023-11-19T08:48:10;17.58;;;2.20;;
23952;SDS011;12163;49.316;6.092;2023-11-19T08:50:36;7.93;;;1.88;;
23952;SDS011;12163;49.316;6.092;2023-11-19T08:53:03;10.65;;;1.52;;
23952;SDS011;12163;49.316;6.092;2023-11-19T08:55:33;8.00;;;1.38;;
23952;SDS011;12163;49.316;6.092;2023-11-19T08:57:59;6.38;;;1.42;;
23952;SDS011;12163;49.316;6.092;2023-11-19T09:00:26;7.13;;;1.55;;
23952;SDS011;12163;49.316;6.092;2023-11-19T09:02:52;6.45;;;1.70;;
23952;SDS011;12163;49.316;6.092;2023-11-19T09:05:19;5.10;;;1.73;;
23952;SDS011;12163;49.316;6.092;2023-11-19T09:07:46;9.15;;;1.83;;
23952;SDS011;12163;49.316;6.092;2023-11-19T09:10:12;9.10;;;1.63;;
23952;SDS011;12163;49.316;6.092;2023-11-19T09:12:39;6.53;;;1.45;;
23952;SDS011;12163;49.316;6.092;2023-11-19T09:15:05;6.50;;;1.55;;
23952;SDS011;12163;49.316;6.092;2023-11-19T09:17:33;7.70;;;1.60;;
23952;SDS011;12163;49.316;6.092;2023-11-19T09:19:59;8.73;;;1.65;;
23952;SDS011;12163;49.316;6.092;2023-11-19T09:22:26;15.40;;;2.40;;
23952;SDS011;12163;49.316;6.092;2023-11-19T09:24:53;7.88;;;1.50;;
23952;SDS011;12163;49.316;6.092;2023-11-19T09:27:20;5.93;;;1.50;;
23952;SDS011;12163;49.316;6.092;2023-11-19T09:29:47;9.27;;;1.70;;
23952;SDS011;12163;49.316;6.092;2023-11-19T09:32:15;9.63;;;2.03;;
23952;SDS011;12163;49.316;6.092;2023-11-19T09:34:41;9.55;;;1.83;;
23952;SDS011;12163;49.316;6.092;2023-11-19T09:37:08;9.05;;;1.98;;
23952;SDS011;12163;49.316;6.092;2023-11-19T09:39:37;11.38;;;1.90;;
23952;SDS011;12163;49.316;6.092;2023-11-19T09:42:04;18.70;;;2.55;;
23952;SDS011;12163;49.316;6.092;2023-11-19T09:44:30;11.20;;;1.67;;
23952;SDS011;12163;49.316;6.092;2023-11-19T09:46:57;7.28;;;1.88;;
23952;SDS011;12163;49.316;6.092;2023-11-19T09:49:25;9.30;;;1.67;;
23952;SDS011;12163;49.316;6.092;2023-11-19T09:51:56;7.03;;;1.73;;
23952;SDS011;12163;49.316;6.092;2023-11-19T09:54:22;9.40;;;1.75;;
23952;SDS011;12163;49.316;6.092;2023-11-19T09:56:49;7.82;;;1.80;;
23952;SDS011;12163;49.316;6.092;2023-11-19T09:59:16;9.05;;;1.90;;
23952;SDS011;12163;49.316;6.092;2023-11-19T10:01:43;7.68;;;1.65;;
23952;SDS011;12163;49.316;6.092;2023-11-19T10:04:12;7.60;;;1.80;;
23952;SDS011;12163;49.316;6.092;2023-11-19T10:06:42;7.55;;;1.95;;
23952;SDS011;12163;49.316;6.092;2023-11-19T10:09:09;7.93;;;2.05;;
23952;SDS011;12163;49.316;6.092;2023-11-19T10:11:35;9.65;;;1.98;;
23952;SDS011;12163;49.316;6.092;2023-11-19T10:14:02;9.40;;;1.70;;
23952;SDS011;12163;49.316;6.092;2023-11-19T10:16:29;10.88;;;2.50;;
23952;SDS011;12163;49.316;6.092;2023-11-19T10:18:58;9.30;;;2.20;;
23952;SDS011;12163;49.316;6.092;2023-11-19T10:21:25;8.90;;;2.63;;
23952;SDS011;12163;49.316;6.092;2023-11-19T10:23:55;5.80;;;1.40;;
23952;SDS011;12163;49.316;6.092;2023-11-19T10:26:26;11.73;;;1.90;;
23952;SDS011;12163;49.316;6.092;2023-11-19T10:28:54;9.25;;;1.83;;
23952;SDS011;12163;49.316;6.092;2023-11-19T10:31:21;9.80;;;1.98;;
23952;SDS011;12163;49.316;6.092;2023-11-19T10:33:52;8.00;;;1.88;;
23952;SDS011;12163;49.316;6.092;2023-11-19T10:36:20;7.97;;;1.92;;
23952;SDS011;12163;49.316;6.092;2023-11-19T10:38:53;8.27;;;1.80;;
23952;SDS011;12163;49.316;6.092;2023-11-19T10:41:30;11.43;;;2.38;;
23952;SDS011;12163;49.316;6.092;2023-11-19T10:43:58;12.10;;;2.15;;
23952;SDS011;12163;49.316;6.092;2023-11-19T10:49:06;12.52;;;2.53;;
23952;SDS011;12163;49.316;6.092;2023-11-19T10:51:34;14.07;;;2.35;;
23952;SDS011;12163;49.316;6.092;2023-11-19T10:54:04;10.30;;;2.22;;
23952;SDS011;12163;49.316;6.092;2023-11-19T10:56:32;15.10;;;2.20;;
23952;SDS011;12163;49.316;6.092;2023-11-19T10:59:00;11.13;;;2.50;;
23952;SDS011;12163;49.316;6.092;2023-11-19T11:01:27;10.23;;;2.15;;
23952;SDS011;12163;49.316;6.092;2023-11-19T11:04:13;10.68;;;2.00;;
23952;SDS011;12163;49.316;6.092;2023-11-19T11:06:43;11.48;;;2.45;;
23952;SDS011;12163;49.316;6.092;2023-11-19T11:09:10;13.45;;;2.53;;
23952;SDS011;12163;49.316;6.092;2023-11-19T11:11:40;12.20;;;2.30;;
23952;SDS011;12163;49.316;6.092;2023-11-19T11:14:10;7.35;;;1.83;;
23952;SDS011;12163;49.316;6.092;2023-11-19T11:16:42;9.60;;;1.90;;
23952;SDS011;12163;49.316;6.092;2023-11-19T11:19:12;10.82;;;2.30;;
23952;SDS011;12163;49.316;6.092;2023-11-19T11:21:40;9.82;;;1.85;;
23952;SDS011;12163;49.316;6.092;2023-11-19T11:38:16;15.30;;;2.65;;
23952;SDS011;12163;49.316;6.092;2023-11-19T11:43:54;12.02;;;2.10;;
23952;SDS011;12163;49.316;6.092;2023-11-19T11:48:59;8.50;;;2.40;;
23952;SDS011;12163;49.316;6.092;2023-11-19T11:54:10;7.35;;;2.22;;
23952;SDS011;12163;49.316;6.092;2023-11-19T11:56:37;13.18;;;1.92;;
23952;SDS011;12163;49.316;6.092;2023-11-19T11:59:07;8.98;;;1.70;;
23952;SDS011;12163;49.316;6.092;2023-11-19T12:01:59;8.90;;;2.03;;
23952;SDS011;12163;49.316;6.092;2023-11-19T12:04:28;8.13;;;1.90;;
23952;SDS011;12163;49.316;6.092;2023-11-19T12:07:05;11.45;;;2.08;;
23952;SDS011;12163;49.316;6.092;2023-11-19T12:09:42;10.13;;;2.10;;
23952;SDS011;12163;49.316;6.092;2023-11-19T12:15:23;9.70;;;2.00;;
23952;SDS011;12163;49.316;6.092;2023-11-19T12:17:37;7.22;;;1.95;;
23952;SDS011;12163;49.316;6.092;2023-11-19T12:20:09;10.50;;;2.25;;
23952;SDS011;12163;49.316;6.092;2023-11-19T12:22:39;8.75;;;2.15;;
23952;SDS011;12163;49.316;6.092;2023-11-19T12:25:07;6.32;;;1.88;;
23952;SDS011;12163;49.316;6.092;2023-11-19T12:27:35;9.70;;;2.47;;
23952;SDS011;12163;49.316;6.092;2023-11-19T12:30:03;9.70;;;1.83;;
23952;SDS011;12163;49.316;6.092;2023-11-19T12:32:39;6.72;;;2.00;;
23952;SDS011;12163;49.316;6.092;2023-11-19T12:35:10;8.90;;;2.05;;
23952;SDS011;12163;49.316;6.092;2023-11-19T12:37:43;11.82;;;1.98;;
23952;SDS011;12163;49.316;6.092;2023-11-19T12:42:39;10.27;;;1.77;;
23952;SDS011;12163;49.316;6.092;2023-11-19T12:45:05;8.05;;;1.85;;
23952;SDS011;12163;49.316;6.092;2023-11-19T12:47:32;10.68;;;2.33;;
23952;SDS011;12163;49.316;6.092;2023-11-19T12:49:59;12.85;;;2.20;;
23952;SDS011;12163;49.316;6.092;2023-11-19T12:52:26;12.88;;;2.47;;
23952;SDS011;12163;49.316;6.092;2023-11-19T12:54:52;9.70;;;2.00;;
23952;SDS011;12163;49.316;6.092;2023-11-19T12:57:19;6.88;;;1.85;;
23952;SDS011;12163;49.316;6.092;2023-11-19T12:59:55;10.32;;;2.20;;
23952;SDS011;12163;49.316;6.092;2023-11-19T13:02:44;9.52;;;1.90;;
23952;SDS011;12163;49.316;6.092;2023-11-19T13:10:29;10.38;;;1.85;;
23952;SDS011;12163;49.316;6.092;2023-11-19T13:13:02;11.88;;;2.35;;
23952;SDS011;12163;49.316;6.092;2023-11-19T13:15:30;8.13;;;2.28;;
23952;SDS011;12163;49.316;6.092;2023-11-19T13:17:58;8.90;;;2.10;;
23952;SDS011;12163;49.316;6.092;2023-11-19T13:20:25;9.73;;;2.10;;
23952;SDS011;12163;49.316;6.092;2023-11-19T13:25:21;13.15;;;2.13;;
23952;SDS011;12163;49.316;6.092;2023-11-19T13:27:48;12.38;;;2.53;;
23952;SDS011;12163;49.316;6.092;2023-11-19T13:30:15;12.40;;;2.28;;
23952;SDS011;12163;49.316;6.092;2023-11-19T13:32:45;11.20;;;2.67;;
23952;SDS011;12163;49.316;6.092;2023-11-19T13:35:12;12.95;;;2.63;;
23952;SDS011;12163;49.316;6.092;2023-11-19T13:37:39;9.85;;;2.15;;
23952;SDS011;12163;49.316;6.092;2023-11-19T13:40:07;14.60;;;2.67;;
23952;SDS011;12163;49.316;6.092;2023-11-19T13:42:36;12.40;;;2.85;;
23952;SDS011;12163;49.316;6.092;2023-11-19T13:45:10;13.35;;;2.40;;
23952;SDS011;12163;49.316;6.092;2023-11-19T13:47:41;6.85;;;1.88;;
23952;SDS011;12163;49.316;6.092;2023-11-19T13:50:10;12.80;;;2.40;;
23952;SDS011;12163;49.316;6.092;2023-11-19T13:52:38;8.25;;;2.20;;
23952;SDS011;12163;49.316;6.092;2023-11-19T13:55:06;9.35;;;2.20;;
23952;SDS011;12163;49.316;6.092;2023-11-19T13:57:37;12.48;;;2.53;;
23952;SDS011;12163;49.316;6.092;2023-11-19T14:00:08;12.57;;;2.30;;
23952;SDS011;12163;49.316;6.092;2023-11-19T14:02:40;16.33;;;2.80;;
23952;SDS011;12163;49.316;6.092;2023-11-19T14:05:07;14.90;;;2.88;;
23952;SDS011;12163;49.316;6.092;2023-11-19T14:07:35;15.52;;;2.90;;
23952;SDS011;12163;49.316;6.092;2023-11-19T14:10:01;13.40;;;2.75;;
23952;SDS011;12163;49.316;6.092;2023-11-19T14:12:29;16.20;;;2.80;;
23952;SDS011;12163;49.316;6.092;2023-11-19T14:14:55;17.15;;;2.63;;
23952;SDS011;12163;49.316;6.092;2023-11-19T14:17:22;12.63;;;2.60;;
23952;SDS011;12163;49.316;6.092;2023-11-19T14:19:48;9.80;;;2.30;;
23952;SDS011;12163;49.316;6.092;2023-11-19T14:22:15;11.73;;;2.72;;
23952;SDS011;12163;49.316;6.092;2023-11-19T14:24:41;12.07;;;2.65;;
23952;SDS011;12163;49.316;6.092;2023-11-19T14:27:09;11.50;;;2.22;;
23952;SDS011;12163;49.316;6.092;2023-11-19T14:29:36;11.18;;;2.30;;
23952;SDS011;12163;49.316;6.092;2023-11-19T14:32:03;17.50;;;2.42;;
23952;SDS011;12163;49.316;6.092;2023-11-19T14:34:30;12.50;;;2.38;;
23952;SDS011;12163;49.316;6.092;2023-11-19T14:36:58;15.65;;;2.72;;
23952;SDS011;12163;49.316;6.092;2023-11-19T14:39:27;11.65;;;2.65;;
23952;SDS011;12163;49.316;6.092;2023-11-19T14:41:55;14.50;;;2.67;;
23952;SDS011;12163;49.316;6.092;2023-11-19T14:44:24;11.10;;;2.70;;
23952;SDS011;12163;49.316;6.092;2023-11-19T14:46:51;14.77;;;2.83;;
23952;SDS011;12163;49.316;6.092;2023-11-19T14:49:17;15.23;;;2.60;;
23952;SDS011;12163;49.316;6.092;2023-11-19T14:51:44;13.30;;;2.72;;
23952;SDS011;12163;49.316;6.092;2023-11-19T14:54:14;12.02;;;2.30;;
23952;SDS011;12163;49.316;6.092;2023-11-19T14:56:42;15.68;;;2.88;;
23952;SDS011;12163;49.316;6.092;2023-11-19T14:59:08;17.30;;;3.17;;
23952;SDS011;12163;49.316;6.092;2023-11-19T15:01:35;14.13;;;2.38;;
23952;SDS011;12163;49.316;6.092;2023-11-19T15:04:02;10.48;;;2.70;;
23952;SDS011;12163;49.316;6.092;2023-11-19T15:06:31;10.35;;;2.25;;
23952;SDS011;12163;49.316;6.092;2023-11-19T15:09:00;19.75;;;3.15;;
23952;SDS011;12163;49.316;6.092;2023-11-19T15:11:26;13.73;;;2.60;;
23952;SDS011;12163;49.316;6.092;2023-11-19T15:13:53;16.20;;;3.08;;
23952;SDS011;12163;49.316;6.092;2023-11-19T15:16:20;17.63;;;2.95;;
23952;SDS011;12163;49.316;6.092;2023-11-19T15:18:52;15.23;;;3.00;;
23952;SDS011;12163;49.316;6.092;2023-11-19T15:21:18;13.35;;;2.92;;
23952;SDS011;12163;49.316;6.092;2023-11-19T15:23:45;16.25;;;2.78;;
23952;SDS011;12163;49.316;6.092;2023-11-19T15:26:12;14.30;;;2.65;;
23952;SDS011;12163;49.316;6.092;2023-11-19T15:28:38;15.65;;;2.50;;